Time;durP1;ratioP1;P1;durP2;ratioP2;P2;SDS_P1;SDS_P2;PMS_P1;PMS_P2;Temp;Humidity;BMP_temperature;BMP_pressure;BME280_temperature;BME280_humidity;BME280_pressure;Samples;Min_cycle;Max_cycle;Signal;HPM_P1;HPM_P2
2022/09/15 00:00:44;;;;;;;4.07;1.92;;;13.30;99.90;;;;;;5095421;28;20044;-73
2022/09/15 00:03:09;;;;;;;4.13;1.80;;;13.30;99.90;;;;;;5104939;28;20046;-73
2022/09/15 00:05:36;;;;;;;4.68;2.20;;;13.30;99.90;;;;;;5113977;28;20058;-72
2022/09/15 00:08:01;;;;;;;4.00;2.00;;;13.20;99.90;;;;;;5103948;28;20035;-72
2022/09/15 00:10:27;;;;;;;2.67;1.60;;;13.30;99.90;;;;;;5115415;28;20039;-73
2022/09/15 00:12:54;;;;;;;4.60;1.75;;;13.30;99.90;;;;;;5113786;28;20039;-72
2022/09/15 00:15:21;;;;;;;6.95;2.40;;;13.30;99.90;;;;;;5115443;28;20043;-72
2022/09/15 00:17:48;;;;;;;5.57;2.20;;;13.30;99.90;;;;;;5110186;28;20105;-73
2022/09/15 00:20:15;;;;;;;5.25;2.20;;;13.40;99.90;;;;;;5094993;28;20455;-73
2022/09/15 00:22:41;;;;;;;5.18;2.30;;;13.40;99.90;;;;;;5099480;28;20044;-73
2022/09/15 00:25:07;;;;;;;5.97;2.58;;;13.40;99.90;;;;;;5114372;28;20074;-73
2022/09/15 00:27:33;;;;;;;6.93;3.40;;;13.40;99.90;;;;;;5113844;28;20477;-73
2022/09/15 00:29:58;;;;;;;4.80;2.63;;;13.40;99.90;;;;;;5115328;28;20396;-73
2022/09/15 00:32:24;;;;;;;6.15;2.72;;;13.40;99.90;;;;;;5110274;28;20126;-73
2022/09/15 00:34:50;;;;;;;5.13;3.05;;;13.40;99.90;;;;;;5114995;28;20066;-73
2022/09/15 00:37:16;;;;;;;7.75;3.30;;;13.50;99.90;;;;;;5112392;28;20039;-73
2022/09/15 00:39:42;;;;;;;6.15;3.45;;;13.50;99.90;;;;;;5097291;28;20051;-72
2022/09/15 00:42:16;;;;;;;9.45;3.70;;;13.60;99.90;;;;;;5106780;28;20404;-73
2022/09/15 00:44:54;;;;;;;6.40;3.33;;;13.60;99.90;;;;;;5115060;28;20047;-73
2022/09/15 00:47:24;;;;;;;5.90;3.13;;;13.60;99.90;;;;;;5112727;28;20046;-72
2022/09/15 00:49:54;;;;;;;7.13;3.10;;;13.60;99.90;;;;;;5093491;28;20044;-73
2022/09/15 00:52:26;;;;;;;9.13;3.38;;;13.70;99.90;;;;;;5094950;28;20518;-73
2022/09/15 00:55:04;;;;;;;5.93;2.97;;;13.70;99.90;;;;;;5114754;28;20044;-73
2022/09/15 00:57:38;;;;;;;7.03;3.10;;;13.70;99.90;;;;;;5113593;28;20036;-72
2022/09/15 01:00:08;;;;;;;6.93;3.42;;;13.80;99.90;;;;;;5114737;28;20032;-73
2022/09/15 01:02:36;;;;;;;6.50;3.33;;;13.80;99.90;;;;;;5112267;27;20102;-73
2022/09/15 01:05:06;;;;;;;6.95;3.40;;;13.80;99.90;;;;;;5096134;28;20504;-73
2022/09/15 01:07:43;;;;;;;7.97;3.20;;;13.90;99.90;;;;;;5114630;28;20044;-73
2022/09/15 01:10:22;;;;;;;7.22;3.40;;;13.90;99.90;;;;;;5114394;28;20149;-73
2022/09/15 01:12:47;;;;;;;6.32;3.00;;;13.90;99.90;;;;;;5094840;28;20031;-73
2022/09/15 01:15:14;;;;;;;6.93;3.10;;;13.90;99.90;;;;;;5114286;28;20046;-73
2022/09/15 01:18:03;;;;;;;6.38;2.95;;;13.90;99.90;;;;;;5114391;28;20042;-73
2022/09/15 01:20:50;;;;;;;7.35;3.00;;;13.90;99.90;;;;;;5110776;28;20511;-73
2022/09/15 01:23:40;;;;;;;7.47;3.40;;;14.00;99.90;;;;;;5092614;28;20162;-73
2022/09/15 01:26:12;;;;;;;8.82;3.55;;;14.00;99.90;;;;;;5102327;28;20400;-73
2022/09/15 01:29:08;;;;;;;7.20;2.88;;;14.00;99.90;;;;;;5103517;27;20509;-73
2022/09/15 01:31:34;;;;;;;7.35;3.05;;;14.00;99.90;;;;;;5120104;27;20043;-73
2022/09/15 01:34:14;;;;;;;9.10;3.20;;;14.00;99.90;;;;;;5113972;27;20100;-73
2022/09/15 01:36:53;;;;;;;6.45;3.00;;;14.00;99.90;;;;;;5102633;28;20031;-73
2022/09/15 01:39:24;;;;;;;6.20;3.00;;;14.00;99.90;;;;;;5113964;28;20115;-73
2022/09/15 01:41:57;;;;;;;5.18;2.30;;;14.00;99.90;;;;;;5114069;28;20036;-73
2022/09/15 01:44:27;;;;;;;6.90;2.40;;;14.00;99.90;;;;;;5114005;28;20036;-73
2022/09/15 01:46:58;;;;;;;7.20;2.60;;;14.10;99.90;;;;;;5113881;28;20031;-72
2022/09/15 01:49:32;;;;;;;6.47;2.60;;;14.00;99.90;;;;;;5113959;28;20498;-73
2022/09/15 01:51:59;;;;;;;6.97;2.85;;;14.10;99.90;;;;;;5105804;28;20048;-72
2022/09/15 01:54:29;;;;;;;7.03;2.85;;;14.10;99.90;;;;;;5096633;28;20044;-72
2022/09/15 01:56:55;;;;;;;7.35;2.50;;;14.10;99.90;;;;;;5092892;28;20073;-73
2022/09/15 01:59:21;;;;;;;5.20;2.35;;;14.10;99.90;;;;;;5092162;28;20043;-73
2022/09/15 02:02:00;;;;;;;6.38;2.35;;;14.10;99.90;;;;;;5093247;28;20511;-73
2022/09/15 02:04:40;;;;;;;6.60;2.58;;;14.10;99.90;;;;;;5111199;28;20067;-73
2022/09/15 02:07:30;;;;;;;6.82;2.90;;;14.10;99.90;;;;;;5113775;28;20052;-73
2022/09/15 02:10:11;;;;;;;7.85;3.08;;;14.10;99.90;;;;;;5102754;28;20043;-73
2022/09/15 02:12:47;;;;;;;7.90;2.80;;;14.10;99.90;;;;;;5102435;28;20039;-72
2022/09/15 02:15:22;;;;;;;7.07;2.72;;;14.10;99.90;;;;;;5083072;28;20051;-72
2022/09/15 02:17:53;;;;;;;8.18;2.97;;;14.10;99.90;;;;;;5091986;28;20055;-72
2022/09/15 02:20:48;;;;;;;8.90;3.00;;;14.10;99.90;;;;;;5091440;28;20115;-72
2022/09/15 02:23:27;;;;;;;8.40;3.33;;;14.10;99.90;;;;;;5099891;28;20080;-73
2022/09/15 02:26:03;;;;;;;8.15;3.30;;;14.10;99.90;;;;;;5110514;28;20119;-73
2022/09/15 02:28:32;;;;;;;6.47;2.80;;;14.00;99.90;;;;;;5100362;28;20491;-73
2022/09/15 02:31:01;;;;;;;7.45;2.42;;;14.10;99.90;;;;;;5134076;27;20126;-72
2022/09/15 02:33:33;;;;;;;11.45;2.60;;;14.20;99.90;;;;;;5121284;27;20088;-73
2022/09/15 02:35:59;;;;;;;9.82;2.60;;;14.30;99.90;;;;;;5112729;28;20372;-73
2022/09/15 02:38:28;;;;;;;8.27;2.40;;;14.30;99.90;;;;;;5110522;28;20040;-73
2022/09/15 02:40:55;;;;;;;6.80;2.05;;;14.30;99.90;;;;;;5112453;28;20067;-73
2022/09/15 02:43:22;;;;;;;5.53;1.70;;;14.30;99.90;;;;;;5109763;28;20305;-73
2022/09/15 02:45:48;;;;;;;6.72;1.73;;;14.30;99.90;;;;;;5081375;28;20141;-73
2022/09/15 02:48:14;;;;;;;9.85;2.05;;;14.30;99.90;;;;;;5133981;27;20109;-73
2022/09/15 02:50:40;;;;;;;8.13;1.60;;;14.30;99.90;;;;;;5129321;27;20042;-73
2022/09/15 02:53:06;;;;;;;6.80;1.60;;;14.30;99.90;;;;;;5115737;28;20484;-73
2022/09/15 02:55:32;;;;;;;6.13;1.80;;;14.30;99.90;;;;;;5117141;28;20127;-73
2022/09/15 02:57:58;;;;;;;6.25;1.40;;;14.30;99.90;;;;;;5117264;28;20097;-73
2022/09/15 03:00:25;;;;;;;7.55;1.95;;;14.30;99.90;;;;;;5113246;28;20038;-73
2022/09/15 03:02:53;;;;;;;7.45;1.60;;;14.30;99.90;;;;;;5106999;28;20071;-73
2022/09/15 03:05:21;;;;;;;5.03;1.48;;;14.30;99.90;;;;;;5096205;28;20056;-72
2022/09/15 03:07:47;;;;;;;4.95;1.15;;;14.30;99.90;;;;;;5115914;28;20111;-73
2022/09/15 03:10:13;;;;;;;4.72;1.02;;;14.30;99.90;;;;;;5114996;28;20066;-73
2022/09/15 03:12:41;;;;;;;9.77;1.45;;;14.30;99.90;;;;;;5109309;27;20067;-73
2022/09/15 03:15:08;;;;;;;6.20;1.35;;;14.30;99.90;;;;;;5129783;27;20028;-73
2022/09/15 03:17:35;;;;;;;11.43;1.42;;;14.30;99.90;;;;;;5095907;28;20480;-73
2022/09/15 03:20:02;;;;;;;6.50;1.00;;;14.30;99.90;;;;;;5110228;28;20078;-73
2022/09/15 03:22:27;;;;;;;4.80;1.17;;;14.30;99.90;;;;;;5096203;28;20036;-73
2022/09/15 03:24:53;;;;;;;5.60;1.10;;;14.30;99.90;;;;;;5107574;28;20043;-73
2022/09/15 03:27:18;;;;;;;5.72;1.17;;;14.30;99.90;;;;;;5103962;28;20040;-73
2022/09/15 03:29:44;;;;;;;7.57;1.50;;;14.30;99.90;;;;;;5099569;28;20039;-73
2022/09/15 03:32:09;;;;;;;6.97;1.00;;;14.30;99.90;;;;;;5131654;27;20031;-73
2022/09/15 03:34:35;;;;;;;5.15;1.00;;;14.30;99.90;;;;;;5144334;27;20047;-73
2022/09/15 03:37:00;;;;;;;6.25;1.15;;;14.30;99.90;;;;;;5119004;27;20043;-72
2022/09/15 03:39:26;;;;;;;6.25;1.17;;;14.30;99.90;;;;;;5131900;27;20040;-73
2022/09/15 03:41:52;;;;;;;6.57;1.08;;;14.30;99.90;;;;;;5117424;27;20046;-72
2022/09/15 03:44:17;;;;;;;6.55;1.20;;;14.40;99.90;;;;;;5111418;28;20118;-73
2022/09/15 03:46:43;;;;;;;5.57;1.23;;;14.40;99.90;;;;;;5132137;27;20040;-73
2022/09/15 03:49:09;;;;;;;5.28;1.08;;;14.40;99.90;;;;;;5093309;28;20054;-73
2022/09/15 03:51:34;;;;;;;8.13;1.50;;;14.40;99.90;;;;;;5116019;28;20124;-73
2022/09/15 03:54:00;;;;;;;6.60;1.10;;;14.40;99.90;;;;;;5114863;28;20046;-73
2022/09/15 03:56:31;;;;;;;7.47;1.20;;;14.40;99.90;;;;;;5148942;27;20039;-73
2022/09/15 03:59:01;;;;;;;8.98;1.27;;;14.30;99.90;;;;;;5113470;28;20514;-73
2022/09/15 04:01:28;;;;;;;5.88;0.90;;;14.30;99.90;;;;;;5098388;28;20085;-72
2022/09/15 04:03:54;;;;;;;6.30;1.15;;;14.30;99.90;;;;;;5113530;28;20043;-72
2022/09/15 04:06:21;;;;;;;6.60;1.05;;;14.30;99.90;;;;;;5105185;28;20047;-73
2022/09/15 04:08:48;;;;;;;7.00;1.05;;;14.30;99.90;;;;;;5110005;28;20118;-73
2022/09/15 04:11:14;;;;;;;4.07;0.82;;;14.30;99.90;;;;;;5094438;28;20032;-73
2022/09/15 04:13:41;;;;;;;6.28;1.08;;;14.40;99.90;;;;;;5094922;28;20036;-73
2022/09/15 04:16:12;;;;;;;7.63;1.30;;;14.30;99.90;;;;;;5110589;28;20039;-73
2022/09/15 04:18:37;;;;;;;5.18;1.13;;;14.30;99.90;;;;;;5111089;28;20043;-73
2022/09/15 04:21:07;;;;;;;3.72;0.98;;;14.20;99.90;;;;;;5104152;27;20534;-72
2022/09/15 04:23:33;;;;;;;4.90;1.10;;;14.30;99.90;;;;;;5099619;28;20075;-73
2022/09/15 04:26:10;;;;;;;5.00;0.90;;;14.20;99.90;;;;;;5094609;28;20174;-73
2022/09/15 04:28:37;;;;;;;4.20;1.10;;;14.20;99.90;;;;;;5096641;28;20107;-73
2022/09/15 04:31:14;;;;;;;4.13;0.90;;;14.10;99.90;;;;;;5111204;27;20494;-73
2022/09/15 04:33:41;;;;;;;4.18;1.00;;;14.10;99.90;;;;;;5120364;27;20559;-73
2022/09/15 04:36:13;;;;;;;7.15;1.00;;;14.10;99.90;;;;;;5114102;28;20101;-73
2022/09/15 04:38:39;;;;;;;7.78;1.10;;;14.10;99.90;;;;;;5113884;28;20027;-73
2022/09/15 04:41:05;;;;;;;4.65;1.17;;;14.10;99.90;;;;;;5105618;28;20036;-73
2022/09/15 04:43:31;;;;;;;6.90;1.17;;;14.00;99.90;;;;;;5111107;28;20044;-73
2022/09/15 04:45:57;;;;;;;7.18;1.20;;;14.00;99.90;;;;;;5098124;28;20055;-73
2022/09/15 04:48:23;;;;;;;5.80;1.20;;;13.90;99.90;;;;;;5113693;27;20046;-73
2022/09/15 04:50:49;;;;;;;5.35;0.98;;;13.90;99.90;;;;;;5106123;28;20043;-72
2022/09/15 04:53:15;;;;;;;3.85;1.10;;;13.80;99.90;;;;;;5110584;28;20040;-73
2022/09/15 04:55:41;;;;;;;4.00;1.02;;;13.80;99.90;;;;;;5113045;28;20044;-73
2022/09/15 04:58:06;;;;;;;4.15;1.00;;;13.80;99.90;;;;;;5112845;28;20042;-73
2022/09/15 05:00:38;;;;;;;7.57;1.13;;;13.80;99.90;;;;;;5103551;28;20036;-73
2022/09/15 05:03:04;;;;;;;3.55;1.13;;;13.80;99.90;;;;;;5105172;28;20032;-73
2022/09/15 05:05:32;;;;;;;5.85;1.02;;;13.80;99.90;;;;;;5106161;27;20134;-73
2022/09/15 05:07:59;;;;;;;6.38;1.00;;;13.90;99.90;;;;;;5103766;28;20438;-73
2022/09/15 05:10:25;;;;;;;5.47;1.00;;;13.90;99.90;;;;;;5107256;28;20042;-73
2022/09/15 05:12:51;;;;;;;4.22;1.20;;;13.80;99.90;;;;;;5096866;28;20040;-73
2022/09/15 05:15:17;;;;;;;6.53;1.20;;;13.80;99.90;;;;;;5108923;28;20040;-73
2022/09/15 05:17:43;;;;;;;3.92;1.00;;;13.80;99.90;;;;;;5112373;28;20096;-73
2022/09/15 05:20:08;;;;;;;5.80;1.45;;;13.80;99.90;;;;;;5108219;28;20039;-73
2022/09/15 05:22:34;;;;;;;7.43;1.23;;;13.80;99.90;;;;;;5094006;28;20051;-73
2022/09/15 05:24:59;;;;;;;8.75;1.20;;;13.80;99.90;;;;;;5105197;28;20114;-73
2022/09/15 05:27:25;;;;;;;8.98;1.35;;;13.80;99.90;;;;;;5101212;28;20031;-73
2022/09/15 05:29:50;;;;;;;7.03;1.52;;;13.80;99.90;;;;;;5095822;28;20508;-73
2022/09/15 05:32:16;;;;;;;9.75;1.00;;;13.80;99.90;;;;;;5097633;28;20031;-73
2022/09/15 05:34:42;;;;;;;8.00;1.30;;;13.70;99.90;;;;;;5100435;28;20092;-73
2022/09/15 05:37:09;;;;;;;6.97;1.10;;;13.70;99.90;;;;;;5112763;28;20521;-73
2022/09/15 05:39:34;;;;;;;6.28;1.10;;;13.70;99.90;;;;;;5112675;28;20035;-73
2022/09/15 05:42:00;;;;;;;7.68;1.60;;;13.80;99.90;;;;;;5114064;28;20043;-73
2022/09/15 05:44:25;;;;;;;7.15;1.23;;;13.70;99.90;;;;;;5113045;28;20422;-73
2022/09/15 05:46:51;;;;;;;6.88;1.35;;;13.70;99.90;;;;;;5112708;28;20075;-73
2022/09/15 05:49:17;;;;;;;4.35;1.33;;;13.70;99.90;;;;;;5113769;28;20051;-73
2022/09/15 05:51:42;;;;;;;7.38;1.38;;;13.70;99.90;;;;;;5112430;28;20032;-73
2022/09/15 05:54:08;;;;;;;4.18;0.90;;;13.70;99.90;;;;;;5097928;28;20551;-81
2022/09/15 05:56:34;;;;;;;9.07;1.40;;;13.70;99.90;;;;;;5110160;28;20102;-79
2022/09/15 05:58:59;;;;;;;12.48;2.17;;;13.80;99.90;;;;;;5111732;28;20063;-79
2022/09/15 06:01:27;;;;;;;5.55;1.30;;;13.90;99.90;;;;;;5094341;28;20038;-79
2022/09/15 06:03:54;;;;;;;6.25;1.20;;;14.00;99.90;;;;;;5095466;28;20372;-73
2022/09/15 06:06:21;;;;;;;6.93;1.35;;;14.00;99.90;;;;;;5112272;28;20122;-75
2022/09/15 06:08:50;;;;;;;5.97;1.20;;;14.00;99.90;;;;;;5103261;28;20040;-73
2022/09/15 06:11:21;;;;;;;8.00;1.30;;;14.00;99.90;;;;;;5093288;28;20040;-73
2022/09/15 06:13:48;;;;;;;9.05;1.40;;;13.90;99.90;;;;;;5111715;28;20044;-73
2022/09/15 06:16:18;;;;;;;5.57;1.10;;;13.90;99.90;;;;;;5113565;28;20031;-73
2022/09/15 06:18:44;;;;;;;6.72;1.15;;;13.90;99.90;;;;;;5103020;28;20032;-73
2022/09/15 06:21:29;;;;;;;5.45;1.10;;;13.90;99.90;;;;;;5099496;28;20111;-73
2022/09/15 06:24:00;;;;;;;6.57;1.17;;;13.90;99.90;;;;;;5115210;28;20398;-73
2022/09/15 06:26:26;;;;;;;7.57;1.15;;;13.80;99.90;;;;;;5096804;28;20043;-73
2022/09/15 06:28:54;;;;;;;8.05;1.38;;;13.90;99.90;;;;;;5116551;28;20519;-73
2022/09/15 06:31:20;;;;;;;6.93;1.50;;;13.90;99.90;;;;;;5114430;28;20062;-73
2022/09/15 06:33:49;;;;;;;8.40;1.50;;;14.00;99.90;;;;;;5117444;28;20503;-73
2022/09/15 06:36:16;;;;;;;6.63;1.45;;;14.00;99.90;;;;;;5116755;28;20130;-73
2022/09/15 06:38:42;;;;;;;9.48;1.30;;;13.90;99.90;;;;;;5116641;28;20042;-73
2022/09/15 06:41:08;;;;;;;6.03;1.27;;;14.00;99.90;;;;;;5106005;28;20448;-73
2022/09/15 06:43:35;;;;;;;7.13;1.42;;;14.00;99.90;;;;;;5150419;27;20075;-73
2022/09/15 06:46:02;;;;;;;5.60;1.45;;;14.10;99.90;;;;;;5098038;28;20115;-73
2022/09/15 06:48:29;;;;;;;4.18;1.58;;;14.10;99.90;;;;;;5105885;28;20411;-73
2022/09/15 06:50:54;;;;;;;7.22;1.30;;;14.10;99.90;;;;;;5105820;28;20479;-73
2022/09/15 06:53:20;;;;;;;8.10;1.52;;;14.20;99.90;;;;;;5117022;28;20047;-73
2022/09/15 06:55:46;;;;;;;7.55;1.30;;;14.20;99.90;;;;;;5115106;28;20039;-73
2022/09/15 06:58:11;;;;;;;7.65;1.42;;;14.20;99.90;;;;;;5116214;28;20506;-73
2022/09/15 07:00:37;;;;;;;6.97;1.60;;;14.30;99.90;;;;;;5133139;27;20044;-73
2022/09/15 07:03:02;;;;;;;7.70;1.60;;;14.30;99.90;;;;;;5112340;28;20043;-73
2022/09/15 07:05:28;;;;;;;6.78;1.42;;;14.40;99.90;;;;;;5108883;28;20051;-73
2022/09/15 07:07:54;;;;;;;8.63;1.50;;;14.40;99.90;;;;;;5100949;28;20442;-73
2022/09/15 07:10:20;;;;;;;8.00;1.30;;;14.50;99.90;;;;;;5105259;28;20031;-73
2022/09/15 07:12:45;;;;;;;7.28;1.45;;;14.50;99.90;;;;;;5113751;28;20039;-73
2022/09/15 07:15:11;;;;;;;6.43;1.30;;;14.60;99.90;;;;;;5116950;28;20058;-73
2022/09/15 07:17:36;;;;;;;8.93;1.23;;;14.70;99.90;;;;;;5115704;28;20035;-73
2022/09/15 07:20:03;;;;;;;12.40;1.50;;;14.70;99.90;;;;;;5116724;28;20141;-73
2022/09/15 07:22:29;;;;;;;5.32;1.10;;;14.70;99.90;;;;;;5113344;28;20110;-73
2022/09/15 07:24:54;;;;;;;6.97;1.05;;;14.80;99.90;;;;;;5115754;27;20536;-78
2022/09/15 07:27:25;;;;;;;8.18;1.30;;;14.90;99.90;;;;;;5115388;28;20039;-76
2022/09/15 07:29:50;;;;;;;5.55;1.10;;;14.90;99.90;;;;;;5105722;28;20123;-73
2022/09/15 07:32:16;;;;;;;8.93;1.40;;;14.90;99.90;;;;;;5097659;27;20127;-73
2022/09/15 07:34:41;;;;;;;7.63;1.50;;;15.00;99.90;;;;;;5137231;27;20047;-73
2022/09/15 07:37:07;;;;;;;5.82;1.25;;;15.00;99.90;;;;;;5115079;28;20039;-73
2022/09/15 07:39:32;;;;;;;8.90;1.50;;;15.00;99.90;;;;;;5107252;28;20275;-73
2022/09/15 07:41:58;;;;;;;5.88;1.23;;;15.10;99.90;;;;;;5093315;27;20036;-73
2022/09/15 07:44:24;;;;;;;6.82;1.80;;;15.20;99.90;;;;;;5114923;27;20395;-73
2022/09/15 07:46:49;;;;;;;5.60;1.10;;;15.30;99.90;;;;;;5103196;28;20115;-73
2022/09/15 07:49:15;;;;;;;4.97;1.20;;;15.30;99.90;;;;;;5106001;28;20047;-72
2022/09/15 07:51:41;;;;;;;10.20;1.25;;;15.40;99.90;;;;;;5094691;28;20054;-73
2022/09/15 07:54:07;;;;;;;8.68;1.77;;;15.40;99.90;;;;;;5113065;27;20043;-73
2022/09/15 07:56:33;;;;;;;9.27;1.70;;;15.50;99.90;;;;;;5100684;28;20114;-73
2022/09/15 07:58:58;;;;;;;7.35;1.40;;;15.60;99.90;;;;;;5111704;28;20028;-73
2022/09/15 08:01:24;;;;;;;9.30;1.33;;;15.60;99.90;;;;;;5105614;28;20436;-73
2022/09/15 08:03:50;;;;;;;4.18;1.13;;;15.70;99.90;;;;;;5109098;28;20083;-73
2022/09/15 08:06:21;;;;;;;5.22;0.88;;;15.70;99.90;;;;;;5112204;28;20036;-73
2022/09/15 08:08:49;;;;;;;6.40;1.00;;;15.70;99.90;;;;;;5112284;28;20031;-73
2022/09/15 08:11:17;;;;;;;7.82;1.10;;;15.70;99.90;;;;;;5111957;27;20043;-73
2022/09/15 08:13:43;;;;;;;4.95;1.50;;;15.70;99.90;;;;;;5110874;27;20035;-73
2022/09/15 08:16:12;;;;;;;7.35;1.27;;;15.80;99.90;;;;;;5103109;28;20043;-73
2022/09/15 08:18:38;;;;;;;8.88;1.02;;;15.80;99.90;;;;;;5095533;28;20035;-72
2022/09/15 08:21:11;;;;;;;5.78;1.00;;;15.80;99.90;;;;;;5109125;28;20028;-73
2022/09/15 08:23:37;;;;;;;9.18;1.30;;;15.80;99.90;;;;;;5109184;28;20043;-73
2022/09/15 08:26:10;;;;;;;4.43;0.88;;;15.70;99.90;;;;;;5113624;27;20043;-73
2022/09/15 08:28:36;;;;;;;4.68;0.95;;;15.70;99.90;;;;;;5104657;28;20044;-73
2022/09/15 08:31:05;;;;;;;6.03;1.13;;;15.70;99.90;;;;;;5107111;28;20032;-73
2022/09/15 08:33:31;;;;;;;4.13;0.90;;;15.70;99.90;;;;;;5102929;27;20100;-73
2022/09/15 08:36:02;;;;;;;4.78;1.00;;;15.70;99.90;;;;;;5102496;28;20484;-73
2022/09/15 08:38:28;;;;;;;6.78;1.33;;;15.90;99.90;;;;;;5108801;28;20089;-73
2022/09/15 08:41:02;;;;;;;5.57;0.90;;;16.00;99.90;;;;;;5113101;28;20036;-73
2022/09/15 08:43:36;;;;;;;7.40;1.08;;;16.10;99.90;;;;;;5114006;28;20039;-73
2022/09/15 08:46:09;;;;;;;5.20;1.02;;;16.20;99.90;;;;;;5107509;28;20126;-73
2022/09/15 08:48:59;;;;;;;3.35;1.52;;;16.40;99.90;;;;;;5104259;28;20047;-73
2022/09/15 08:51:42;;;;;;;7.40;1.40;;;16.50;99.90;;;;;;5076308;28;20120;-72
2022/09/15 08:54:15;;;;;;;6.50;1.05;;;16.70;99.90;;;;;;5093812;28;20040;-72
2022/09/15 08:56:42;;;;;;;5.57;1.13;;;16.70;99.90;;;;;;5112649;28;20042;-72
2022/09/15 08:59:14;;;;;;;8.77;1.13;;;16.70;99.90;;;;;;5108574;28;20032;-72
2022/09/15 09:01:51;;;;;;;5.72;1.00;;;16.60;99.90;;;;;;5104980;28;20035;-72
2022/09/15 09:04:30;;;;;;;7.25;0.98;;;16.50;99.90;;;;;;5112086;28;20508;-72
2022/09/15 09:07:07;;;;;;;5.50;1.00;;;16.40;99.90;;;;;;5106272;28;20054;-72
2022/09/15 09:10:01;;;;;;;6.45;1.40;;;16.50;99.90;;;;;;5102800;28;20090;-72
2022/09/15 09:12:48;;;;;;;7.75;1.13;;;16.50;99.90;;;;;;5102750;28;20046;-72
2022/09/15 09:15:39;;;;;;;9.48;1.55;;;16.30;99.90;;;;;;5116098;27;20085;-72
2022/09/15 09:18:29;;;;;;;6.43;1.52;;;16.30;99.90;;;;;;5116426;27;20042;-72
2022/09/15 09:21:04;;;;;;;6.65;1.35;;;16.10;99.90;;;;;;5129192;27;20039;-73
2022/09/15 09:23:33;;;;;;;6.53;1.10;;;16.10;99.90;;;;;;5109778;28;20043;-72
2022/09/15 09:26:00;;;;;;;5.72;1.02;;;16.00;99.90;;;;;;5108136;28;20101;-72
2022/09/15 09:28:34;;;;;;;6.38;1.00;;;15.90;99.90;;;;;;5112624;28;20116;-72
2022/09/15 09:31:06;;;;;;;6.65;1.42;;;15.90;99.90;;;;;;5113971;28;20040;-72
2022/09/15 09:33:31;;;;;;;;;;;15.80;99.90;;;;;;5110666;28;20043;-73
2022/09/15 09:36:00;;;;;;;5.97;1.00;;;15.70;99.90;;;;;;5096275;28;19915;-72
2022/09/15 09:38:38;;;;;;;6.55;1.30;;;15.80;99.90;;;;;;5126703;27;20032;-73
2022/09/15 09:41:15;;;;;;;7.68;1.45;;;15.90;99.90;;;;;;5103021;28;20076;-73
2022/09/15 09:43:42;;;;;;;6.43;1.10;;;15.90;99.90;;;;;;5112462;28;20492;-72
2022/09/15 09:46:15;;;;;;;8.43;1.23;;;16.00;99.90;;;;;;5112058;28;20046;-73
2022/09/15 09:48:50;;;;;;;6.22;1.40;;;16.00;99.90;;;;;;5113765;28;20135;-73
2022/09/15 09:51:58;;;;;;;6.70;1.35;;;16.10;99.90;;;;;;5101483;28;20479;-73
2022/09/15 09:54:30;;;;;;;6.28;1.30;;;16.20;99.90;;;;;;5113029;28;20054;-73
2022/09/15 09:57:15;;;;;;;5.70;0.93;;;16.20;99.90;;;;;;5086522;28;20114;-73
2022/09/15 09:59:41;;;;;;;6.63;1.40;;;16.30;99.90;;;;;;5102055;28;20431;-73
2022/09/15 10:02:09;;;;;;;6.68;1.45;;;16.30;99.90;;;;;;5124689;27;20032;-73
2022/09/15 10:04:39;;;;;;;8.02;1.27;;;16.30;99.90;;;;;;5098146;28;20056;-73
2022/09/15 10:07:06;;;;;;;6.13;1.17;;;16.20;99.90;;;;;;5112294;28;20039;-73
2022/09/15 10:09:32;;;;;;;8.20;1.30;;;16.30;99.90;;;;;;5113109;28;20043;-73
2022/09/15 10:12:00;;;;;;;5.88;1.27;;;16.40;99.90;;;;;;5111529;28;20065;-73
2022/09/15 10:14:28;;;;;;;4.97;1.13;;;16.50;99.90;;;;;;5108410;28;20533;-73
2022/09/15 10:17:03;;;;;;;8.40;1.42;;;16.50;99.90;;;;;;5101890;28;20102;-73
2022/09/15 10:19:42;;;;;;;4.43;1.13;;;16.60;99.90;;;;;;5107377;28;20488;-73
2022/09/15 10:22:08;;;;;;;4.72;0.93;;;16.70;99.90;;;;;;5098016;28;20119;-73
2022/09/15 10:24:37;;;;;;;5.25;0.82;;;16.60;99.90;;;;;;5099639;28;20414;-73
2022/09/15 10:27:26;;;;;;;5.75;0.93;;;16.50;99.90;;;;;;5109804;28;20097;-73
2022/09/15 10:29:53;;;;;;;6.38;1.20;;;16.50;99.90;;;;;;5086575;28;20056;-73
2022/09/15 10:32:28;;;;;;;3.15;0.70;;;16.50;99.90;;;;;;5098420;28;20454;-73
2022/09/15 10:35:10;;;;;;;2.67;0.70;;;16.60;99.90;;;;;;5096468;28;20071;-73
2022/09/15 10:37:54;;;;;;;6.13;0.90;;;16.70;99.90;;;;;;5092368;28;20042;-73
2022/09/15 10:40:25;;;;;;;4.07;0.73;;;16.80;99.90;;;;;;5110755;28;20043;-73
2022/09/15 10:42:56;;;;;;;3.53;1.00;;;16.90;99.90;;;;;;5108013;28;20039;-73
2022/09/15 10:45:48;;;;;;;5.40;0.82;;;17.00;99.90;;;;;;5111858;28;20043;-73
2022/09/15 10:48:37;;;;;;;4.67;0.70;;;17.10;99.90;;;;;;5110628;28;20031;-73
2022/09/15 10:51:36;;;;;;;3.35;0.80;;;17.20;99.90;;;;;;5127776;27;20368;-73
2022/09/15 10:54:43;;;;;;;4.97;0.80;;;17.40;99.90;;;;;;5111062;28;20541;-73
2022/09/15 10:57:48;;;;;;;5.32;1.00;;;17.60;99.90;;;;;;5047575;28;20037;-73
2022/09/15 11:00:27;;;;;;;4.57;1.02;;;17.70;99.90;;;;;;5067103;28;20039;-73
2022/09/15 11:03:21;;;;;;;6.93;0.95;;;17.80;99.90;;;;;;5111500;28;20036;-73
2022/09/15 11:06:00;;;;;;;6.25;0.98;;;18.00;99.90;;;;;;5097717;28;20044;-73
2022/09/15 11:09:16;;;;;;;4.13;0.80;;;17.80;99.90;;;;;;5108490;28;20054;-73
2022/09/15 11:11:57;;;;;;;6.50;0.80;;;17.50;99.90;;;;;;5074359;28;20077;-74
2022/09/15 11:14:25;;;;;;;4.55;0.82;;;17.20;99.90;;;;;;5094974;28;20055;-73
2022/09/15 11:17:02;;;;;;;5.28;1.13;;;17.00;99.90;;;;;;5108741;28;20055;-73
2022/09/15 11:19:36;;;;;;;3.90;0.80;;;16.90;99.90;;;;;;5096222;28;20040;-74
2022/09/15 11:22:16;;;;;;;6.80;1.00;;;16.80;99.90;;;;;;5112800;27;20499;-73
2022/09/15 11:24:56;;;;;;;3.33;0.75;;;16.80;99.90;;;;;;5113921;27;20071;-73
2022/09/15 11:27:56;;;;;;;5.80;0.90;;;16.80;99.90;;;;;;5113973;28;20044;-73
2022/09/15 11:30:31;;;;;;;2.78;0.88;;;16.80;99.90;;;;;;5099856;28;20475;-73
2022/09/15 11:33:24;;;;;;;4.88;0.88;;;16.80;99.90;;;;;;5105163;27;20089;-73
2022/09/15 11:35:59;;;;;;;2.85;0.80;;;16.80;99.90;;;;;;5113621;27;20126;-73
2022/09/15 11:38:54;;;;;;;3.80;1.00;;;16.90;99.90;;;;;;5125420;27;20040;-74
2022/09/15 11:41:29;;;;;;;4.22;0.85;;;17.10;99.90;;;;;;5110518;28;20032;-73
2022/09/15 11:44:16;;;;;;;3.20;0.70;;;17.40;99.90;;;;;;5096582;28;20048;-72
2022/09/15 11:47:06;;;;;;;2.33;0.60;;;17.50;99.90;;;;;;5115796;28;20047;-73
2022/09/15 11:49:36;;;;;;;2.58;0.68;;;17.60;99.90;;;;;;5095093;28;20048;-73
2022/09/15 11:52:21;;;;;;;2.72;0.70;;;17.60;99.90;;;;;;5109319;28;20407;-73
2022/09/15 11:54:55;;;;;;;3.35;0.60;;;17.50;99.90;;;;;;5103680;28;20044;-73
2022/09/15 11:57:27;;;;;;;4.75;1.02;;;17.50;99.90;;;;;;5114059;28;20283;-73
2022/09/15 12:00:11;;;;;;;3.45;0.70;;;17.50;99.90;;;;;;5099080;28;20047;-73
2022/09/15 12:02:50;;;;;;;2.88;0.60;;;17.50;99.90;;;;;;5125694;27;20483;-73
2022/09/15 12:05:16;;;;;;;4.45;0.60;;;17.60;99.90;;;;;;5097546;28;20508;-73
2022/09/15 12:07:56;;;;;;;3.60;0.98;;;17.50;99.90;;;;;;5108128;28;20046;-73
2022/09/15 12:10:30;;;;;;;4.07;0.80;;;17.50;99.90;;;;;;5110319;28;20043;-73
2022/09/15 12:12:58;;;;;;;3.55;0.82;;;17.50;99.90;;;;;;5110872;28;20066;-73
2022/09/15 12:15:28;;;;;;;3.47;0.90;;;17.50;99.90;;;;;;5108615;27;20400;-73
2022/09/15 12:18:24;;;;;;;4.43;0.90;;;17.60;99.90;;;;;;5121146;27;20036;-73
2022/09/15 12:20:57;;;;;;;5.30;1.05;;;17.60;99.90;;;;;;5093035;28;20052;-73
2022/09/15 12:23:33;;;;;;;4.70;0.80;;;17.60;99.90;;;;;;5105631;28;20395;-73
2022/09/15 12:26:28;;;;;;;3.95;0.85;;;17.60;99.90;;;;;;5109776;28;20111;-72
2022/09/15 12:29:20;;;;;;;2.53;0.77;;;17.50;99.90;;;;;;5081513;28;20044;-74
2022/09/15 12:31:46;;;;;;;2.67;0.60;;;17.50;99.90;;;;;;5083957;28;20047;-72
2022/09/15 12:34:23;;;;;;;3.13;1.08;;;17.50;99.90;;;;;;5109002;28;20052;-73
2022/09/15 12:36:52;;;;;;;3.90;0.70;;;17.50;99.90;;;;;;5114627;28;20042;-74
2022/09/15 12:39:41;;;;;;;3.92;0.80;;;17.40;99.90;;;;;;5114482;28;20544;-73
2022/09/15 12:42:30;;;;;;;3.67;0.88;;;17.50;99.90;;;;;;5101473;28;20499;-73
2022/09/15 12:45:02;;;;;;;4.80;0.95;;;17.60;99.90;;;;;;5114722;28;20053;-73
2022/09/15 12:47:49;;;;;;;10.27;1.40;;;17.70;99.90;;;;;;5098420;28;20043;-73
2022/09/15 12:50:15;;;;;;;4.43;0.82;;;17.80;99.90;;;;;;5094846;28;20450;-73
2022/09/15 12:52:53;;;;;;;6.72;1.40;;;17.90;99.90;;;;;;5113357;28;20055;-72
2022/09/15 12:55:30;;;;;;;4.68;0.80;;;17.90;99.90;;;;;;5098377;28;20042;-73
2022/09/15 12:58:06;;;;;;;4.13;0.80;;;18.00;99.90;;;;;;5093967;28;20036;-73
2022/09/15 13:00:43;;;;;;;4.38;1.02;;;17.90;99.90;;;;;;5093663;28;20072;-73
2022/09/15 13:03:48;;;;;;;3.83;0.70;;;17.80;99.90;;;;;;5093569;28;20059;-74
2022/09/15 13:06:28;;;;;;;4.88;0.85;;;17.70;99.90;;;;;;5093802;28;20119;-73
2022/09/15 13:09:04;;;;;;;4.40;0.90;;;17.60;99.90;;;;;;5092445;28;20464;-73
2022/09/15 13:11:38;;;;;;;5.25;0.80;;;17.40;99.90;;;;;;5093546;28;20051;-73